Time;durP1;ratioP1;P1;durP2;ratioP2;P2;SDS_P1;SDS_P2;PMS_P1;PMS_P2;Temp;Humidity;BMP_temperature;BMP_pressure;BME280_temperature;BME280_humidity;BME280_pressure;Samples;Min_cycle;Max_cycle;Signal;HPM_P1;HPM_P2
2022/03/30 00:00:04;;;;;;;;;;;5.10;99.90;;;;;;5158506;27;19970;-69
2022/03/30 00:02:31;;;;;;;;;;;5.10;99.90;;;;;;5158407;27;20408;-69
2022/03/30 00:04:56;;;;;;;;;;;5.20;99.90;;;;;;5158314;27;19970;-69
2022/03/30 00:07:22;;;;;;;;;;;5.10;99.90;;;;;;5158128;27;19962;-69
2022/03/30 00:09:47;;;;;;;;;;;6.70;99.90;;;;;;5158535;27;19923;-68
2022/03/30 00:12:13;;;;;;;;;;;5.80;99.90;;;;;;5158511;27;20298;-69
2022/03/30 00:14:39;;;;;;;;;;;5.70;99.90;;;;;;5140007;27;19971;-68
2022/03/30 00:17:05;;;;;;;;;;;5.10;99.90;;;;;;5158111;27;19977;-68
2022/03/30 00:19:31;;;;;;;;;;;5.10;99.90;;;;;;5139906;27;19977;-69
2022/03/30 00:21:57;;;;;;;;;;;5.00;99.90;;;;;;5158255;27;19923;-69
2022/03/30 00:24:23;;;;;;;;;;;5.50;99.90;;;;;;5158009;27;19923;-69
2022/03/30 00:26:49;;;;;;;;;;;5.00;99.90;;;;;;5158128;27;19930;-69
2022/03/30 00:29:14;;;;;;;;;;;5.00;99.90;;;;;;5158004;27;19991;-69
2022/03/30 00:31:40;;;;;;;;;;;5.00;99.90;;;;;;5157670;27;19930;-68
2022/03/30 00:34:05;;;;;;;;;;;5.00;99.90;;;;;;5157835;27;19927;-68
2022/03/30 00:36:31;;;;;;;;;;;5.00;99.90;;;;;;5157705;27;19923;-68
2022/03/30 00:38:57;;;;;;;;;;;5.10;99.90;;;;;;5157598;27;19923;-70
2022/03/30 00:41:22;;;;;;;;;;;5.00;99.90;;;;;;5157590;27;19927;-68
2022/03/30 00:43:48;;;;;;;;;;;5.20;99.90;;;;;;5157718;27;20023;-69
2022/03/30 00:46:14;;;;;;;;;;;5.00;99.90;;;;;;5157445;27;19924;-68
2022/03/30 00:48:40;;;;;;;;;;;5.90;99.90;;;;;;5157592;27;19923;-68
2022/03/30 00:51:06;;;;;;;;;;;5.00;99.90;;;;;;5154816;27;19926;-69
2022/03/30 00:53:31;;;;;;;;;;;5.40;99.90;;;;;;5151710;27;20290;-68
2022/03/30 00:55:57;;;;;;;;;;;5.00;99.90;;;;;;5157291;27;20369;-69
2022/03/30 00:58:23;;;;;;;;;;;3.80;99.90;;;;;;5157543;27;20017;-69
2022/03/30 01:00:49;;;;;;;;;;;7.00;99.90;;;;;;5138931;27;20391;-69
2022/03/30 01:03:15;;;;;;;;;;;5.10;99.90;;;;;;5157323;27;19923;-70
2022/03/30 01:05:40;;;;;;;;;;;5.10;99.90;;;;;;5118005;27;19930;-70
2022/03/30 01:08:06;;;;;;;;;;;5.20;99.90;;;;;;5136336;27;19927;-69
2022/03/30 01:10:31;;;;;;;;;;;5.10;99.90;;;;;;5135247;27;19923;-69
2022/03/30 01:12:57;;;;;;;;;;;5.90;99.90;;;;;;5136487;27;19923;-69
2022/03/30 01:15:23;;;;;;;;;;;5.10;99.90;;;;;;5136337;27;19924;-69
2022/03/30 01:17:49;;;;;;;;;;;5.60;99.90;;;;;;5136307;27;19924;-69
2022/03/30 01:20:18;;;;;;;;;;;5.60;99.90;;;;;;5135291;27;20313;-70
2022/03/30 01:22:44;;;;;;;;;;;5.10;99.90;;;;;;5135283;27;19956;-69
2022/03/30 01:25:09;;;;;;;;;;;6.20;99.90;;;;;;5135946;27;19924;-69
2022/03/30 01:27:35;;;;;;;;;;;6.50;99.90;;;;;;5135224;27;19923;-71
2022/03/30 01:32:53;;;;;;;;;;;5.10;99.90;;;;;;5135988;27;19930;-69
2022/03/30 01:35:19;;;;;;;;;;;6.10;99.90;;;;;;5135880;27;20369;-70
2022/03/30 01:37:44;;;;;;;;;;;5.20;99.90;;;;;;5135662;27;19981;-71
2022/03/30 01:40:10;;;;;;;;;;;5.00;99.90;;;;;;5135952;27;19931;-69
2022/03/30 01:42:36;;;;;;;;;;;5.10;99.90;;;;;;5135903;27;20002;-69
2022/03/30 01:45:02;;;;;;;;;;;3.70;99.90;;;;;;5135747;27;19923;-68
2022/03/30 01:47:28;;;;;;;;;;;5.10;99.90;;;;;;5135733;27;20374;-69
2022/03/30 01:49:54;;;;;;;;;;;5.90;99.90;;;;;;5135586;27;19930;-68
2022/03/30 01:52:19;;;;;;;;;;;5.40;99.90;;;;;;5135153;27;19923;-69
2022/03/30 01:54:45;;;;;;;;;;;5.50;99.90;;;;;;5135441;27;19992;-69
2022/03/30 01:57:15;;;;;;;;;;;5.10;99.90;;;;;;5135518;27;19946;-68
2022/03/30 01:59:43;;;;;;;;;;;5.60;99.90;;;;;;5135592;27;19924;-67
2022/03/30 02:02:10;;;;;;;;;;;5.10;99.90;;;;;;5135409;27;19930;-68
2022/03/30 02:04:36;;;;;;;;;;;5.10;99.90;;;;;;5134047;27;19927;-69
2022/03/30 02:07:03;;;;;;;;;;;5.10;99.90;;;;;;5135045;27;19923;-70
2022/03/30 02:09:29;;;;;;;;;;;5.10;99.90;;;;;;5134432;27;19930;-70
2022/03/30 02:11:54;;;;;;;;;;;6.30;99.90;;;;;;5135315;27;19924;-70
2022/03/30 02:14:20;;;;;;;;;;;5.10;99.90;;;;;;5135372;27;20014;-69
2022/03/30 02:16:46;;;;;;;;;;;5.70;99.90;;;;;;5134021;27;20306;-69
2022/03/30 02:19:11;;;;;;;;;;;5.20;99.90;;;;;;5134205;27;19924;-68
2022/03/30 02:21:37;;;;;;;;;;;5.50;99.90;;;;;;5127864;27;20385;-68
2022/03/30 02:24:03;;;;;;;;;;;5.20;99.90;;;;;;5115362;27;19928;-68
2022/03/30 02:26:30;;;;;;;;;;;5.20;99.90;;;;;;5135175;27;19932;-71
2022/03/30 02:28:56;;;;;;;;;;;6.30;99.90;;;;;;5134943;27;20321;-69
2022/03/30 02:31:22;;;;;;;;;;;5.20;99.90;;;;;;5134845;27;19930;-70
2022/03/30 02:33:48;;;;;;;;;;;5.20;99.90;;;;;;5134855;27;19923;-70
2022/03/30 02:36:14;;;;;;;;;;;5.90;99.90;;;;;;5134702;27;19924;-69
2022/03/30 02:38:40;;;;;;;;;;;5.20;99.90;;;;;;5134695;27;20416;-69
2022/03/30 02:41:06;;;;;;;;;;;5.20;99.90;;;;;;5134960;27;20382;-67
2022/03/30 02:43:33;;;;;;;;;;;5.20;99.90;;;;;;5134849;27;19923;-68
2022/03/30 02:45:58;;;;;;;;;;;5.20;99.90;;;;;;5134718;27;19976;-69
2022/03/30 02:48:28;;;;;;;;;;;6.50;99.90;;;;;;5134734;27;19927;-71
2022/03/30 02:50:55;;;;;;;;;;;6.00;99.90;;;;;;5134522;27;20302;-68
2022/03/30 02:53:21;;;;;;;;;;;5.10;99.90;;;;;;5134574;28;20463;-69
2022/03/30 02:55:47;;;;;;;;;;;5.20;99.90;;;;;;5134795;28;19975;-69
2022/03/30 02:58:13;;;;;;;;;;;5.10;99.90;;;;;;5134685;28;19923;-69
2022/03/30 03:00:39;;;;;;;;;;;5.10;99.90;;;;;;5134453;28;20404;-70
2022/03/30 03:03:05;;;;;;;;;;;6.00;99.90;;;;;;5134478;27;19923;-69
2022/03/30 03:05:34;;;;;;;;;;;5.00;99.90;;;;;;5137534;27;19976;-69
2022/03/30 03:08:00;;;;;;;;;;;5.00;99.90;;;;;;5138560;27;20274;-69
2022/03/30 03:10:25;;;;;;;;;;;5.00;99.90;;;;;;5120152;27;19970;-69
2022/03/30 03:12:51;;;;;;;;;;;5.00;99.90;;;;;;5138806;27;19981;-69
2022/03/30 03:15:17;;;;;;;;;;;3.40;99.90;;;;;;5138754;27;19923;-68
2022/03/30 03:17:42;;;;;;;;;;;4.90;99.90;;;;;;5138655;27;19992;-70
2022/03/30 03:20:08;;;;;;;;;;;5.70;99.90;;;;;;5119720;27;19924;-69
2022/03/30 03:22:34;;;;;;;;;;;4.80;99.90;;;;;;5120388;27;20018;-68
2022/03/30 03:25:00;;;;;;;;;;;4.80;99.90;;;;;;5120307;27;19923;-69
2022/03/30 03:27:25;;;;;;;;;;;5.50;99.90;;;;;;5138613;27;19931;-70
2022/03/30 03:29:51;;;;;;;;;;;4.90;99.90;;;;;;5138407;27;19930;-68
2022/03/30 03:32:16;;;;;;;;;;;5.80;99.90;;;;;;5119924;27;19927;-71
2022/03/30 03:34:42;;;;;;;;;;;5.40;99.90;;;;;;5120186;27;19931;-69
2022/03/30 03:37:08;;;;;;;;;;;4.70;99.90;;;;;;5138144;27;19945;-69
2022/03/30 03:39:34;;;;;;;;;;;5.50;99.90;;;;;;5137984;27;19975;-69
2022/03/30 03:41:59;;;;;;;;;;;4.70;99.90;;;;;;5138204;27;20026;-69
2022/03/30 03:44:25;;;;;;;;;;;4.70;99.90;;;;;;5138101;27;19923;-68
2022/03/30 03:46:50;;;;;;;;;;;4.60;99.90;;;;;;5137937;27;20012;-69
2022/03/30 03:49:16;;;;;;;;;;;6.30;99.90;;;;;;5137969;27;19927;-69
2022/03/30 03:51:42;;;;;;;;;;;5.40;99.90;;;;;;5119848;27;19930;-69
2022/03/30 03:54:07;;;;;;;;;;;4.60;99.90;;;;;;5137784;27;20018;-69
2022/03/30 03:56:33;;;;;;;;;;;4.60;99.90;;;;;;5137649;27;20023;-68
2022/03/30 03:58:58;;;;;;;;;;;5.40;99.90;;;;;;5137905;27;19924;-69
2022/03/30 04:01:24;;;;;;;;;;;4.60;99.90;;;;;;5137785;27;20412;-71
2022/03/30 04:03:49;;;;;;;;;;;4.90;99.90;;;;;;5137568;27;19992;-69
2022/03/30 04:06:15;;;;;;;;;;;4.60;99.90;;;;;;5137647;27;20032;-67
2022/03/30 04:08:41;;;;;;;;;;;4.60;99.90;;;;;;5137526;27;19978;-70
2022/03/30 04:11:07;;;;;;;;;;;5.40;99.90;;;;;;5119124;27;19935;-68
2022/03/30 04:13:32;;;;;;;;;;;5.20;99.90;;;;;;5137683;27;20036;-68
2022/03/30 04:15:58;;;;;;;;;;;4.50;99.90;;;;;;5136909;27;19924;-68
2022/03/30 04:18:23;;;;;;;;;;;5.20;99.90;;;;;;5137407;27;19977;-69
2022/03/30 04:20:49;;;;;;;;;;;5.40;99.90;;;;;;5137175;27;19930;-69
2022/03/30 04:23:14;;;;;;;;;;;4.60;99.90;;;;;;5119317;27;19923;-69
2022/03/30 04:25:40;;;;;;;;;;;5.60;99.90;;;;;;5137121;27;19924;-69
2022/03/30 04:28:06;;;;;;;;;;;4.60;99.90;;;;;;5137369;27;19927;-68
2022/03/30 04:30:31;;;;;;;;;;;4.50;99.90;;;;;;5137176;27;19929;-69
2022/03/30 04:32:57;;;;;;;;;;;5.00;99.90;;;;;;5137229;27;19923;-68
2022/03/30 04:35:25;;;;;;;;;;;4.80;99.90;;;;;;5137027;27;19931;-69
2022/03/30 04:37:52;;;;;;;;;;;5.50;99.90;;;;;;5136939;27;19923;-69
2022/03/30 04:40:18;;;;;;;;;;;4.60;99.90;;;;;;5136889;27;19923;-69
2022/03/30 04:42:43;;;;;;;;;;;4.70;99.90;;;;;;5118832;27;19977;-70
2022/03/30 04:45:09;;;;;;;;;;;3.40;99.90;;;;;;5136939;27;20029;-69
2022/03/30 04:47:35;;;;;;;;;;;4.70;99.90;;;;;;5136843;27;20408;-69
2022/03/30 04:50:00;;;;;;;;;;;4.60;99.90;;;;;;5136881;27;19923;-71
2022/03/30 04:52:26;;;;;;;;;;;4.70;99.90;;;;;;5136654;27;20301;-69
2022/03/30 04:54:51;;;;;;;;;;;4.60;99.90;;;;;;5117832;27;19924;-70
2022/03/30 04:57:17;;;;;;;;;;;4.60;99.90;;;;;;5136398;27;19930;-69
2022/03/30 04:59:43;;;;;;;;;;;4.00;99.90;;;;;;5118718;27;19923;-70
2022/03/30 05:02:08;;;;;;;;;;;5.10;99.90;;;;;;5136639;27;19923;-68
2022/03/30 05:04:34;;;;;;;;;;;4.50;99.90;;;;;;5136430;27;19930;-69
2022/03/30 05:06:59;;;;;;;;;;;4.50;99.90;;;;;;5136350;27;19969;-68
2022/03/30 05:09:25;;;;;;;;;;;5.30;99.90;;;;;;5136387;27;20034;-70
2022/03/30 05:11:51;;;;;;;;;;;6.30;99.90;;;;;;5117987;27;19923;-69
2022/03/30 05:14:17;;;;;;;;;;;2.70;99.90;;;;;;5101479;27;20374;-68
2022/03/30 05:16:42;;;;;;;;;;;4.50;99.90;;;;;;5136280;27;19923;-68
2022/03/30 05:19:09;;;;;;;;;;;4.80;99.90;;;;;;5136199;27;20305;-68
2022/03/30 05:21:35;;;;;;;;;;;4.60;99.90;;;;;;5136217;27;19973;-68
2022/03/30 05:24:00;;;;;;;;;;;5.30;99.90;;;;;;5117608;27;19923;-68
2022/03/30 05:26:28;;;;;;;;;;;4.40;99.90;;;;;;5135500;27;19935;-71
2022/03/30 05:28:54;;;;;;;;;;;4.40;99.90;;;;;;5117401;27;19971;-70
2022/03/30 05:31:19;;;;;;;;;;;4.40;99.90;;;;;;5136109;27;20034;-69
2022/03/30 05:33:45;;;;;;;;;;;4.90;99.90;;;;;;5136023;27;19985;-69
2022/03/30 05:36:12;;;;;;;;;;;4.90;99.90;;;;;;5135774;27;19923;-69
2022/03/30 05:38:37;;;;;;;;;;;4.40;99.90;;;;;;5135858;27;19924;-68
2022/03/30 05:41:04;;;;;;;;;;;4.40;99.90;;;;;;5135738;27;19976;-68
2022/03/30 05:43:30;;;;;;;;;;;6.10;99.90;;;;;;5135670;27;19930;-69
2022/03/30 05:45:55;;;;;;;;;;;4.50;99.90;;;;;;5135736;27;19923;-68
2022/03/30 05:48:21;;;;;;;;;;;5.10;99.90;;;;;;5116981;27;20015;-68
2022/03/30 05:50:47;;;;;;;;;;;4.50;99.90;;;;;;5117229;27;19928;-69
2022/03/30 05:53:14;;;;;;;;;;;4.50;99.90;;;;;;5135423;27;19929;-68
2022/03/30 05:55:40;;;;;;;;;;;5.40;99.90;;;;;;5135444;27;19975;-70
2022/03/30 05:58:06;;;;;;;;;;;4.50;99.90;;;;;;5135325;27;19923;-68
2022/03/30 06:00:32;;;;;;;;;;;5.40;99.90;;;;;;5135527;27;19923;-69
2022/03/30 06:02:58;;;;;;;;;;;4.50;99.90;;;;;;5117424;27;20382;-69
2022/03/30 06:05:24;;;;;;;;;;;4.60;99.90;;;;;;5135298;27;19927;-68
2022/03/30 06:07:49;;;;;;;;;;;4.40;99.90;;;;;;5135246;27;19951;-68
2022/03/30 06:10:15;;;;;;;;;;;4.40;99.90;;;;;;5117213;27;19923;-68
2022/03/30 06:12:40;;;;;;;;;;;4.80;99.90;;;;;;5135134;27;19924;-71
2022/03/30 06:15:07;;;;;;;;;;;4.50;99.90;;;;;;5135053;27;19923;-69
2022/03/30 06:17:33;;;;;;;;;;;4.40;99.90;;;;;;5116685;27;19924;-68
2022/03/30 06:19:59;;;;;;;;;;;5.40;99.90;;;;;;5135108;27;19923;-68
2022/03/30 06:22:29;;;;;;;;;;;2.80;99.90;;;;;;5135059;27;19958;-69
2022/03/30 06:24:55;;;;;;;;;;;4.40;99.90;;;;;;5135035;27;19923;-70
2022/03/30 06:27:22;;;;;;;;;;;5.00;99.90;;;;;;5134915;27;19927;-69
2022/03/30 06:29:47;;;;;;;;;;;4.70;99.90;;;;;;5134880;27;19934;-68
2022/03/30 06:32:13;;;;;;;;;;;5.90;99.90;;;;;;5134761;27;20351;-68
2022/03/30 06:34:40;;;;;;;;;;;4.50;99.90;;;;;;5135040;27;20301;-68
2022/03/30 06:37:05;;;;;;;;;;;4.50;99.90;;;;;;5134890;27;19976;-68
2022/03/30 06:39:34;;;;;;;;;;;4.50;99.90;;;;;;5134528;27;20010;-68
2022/03/30 06:42:00;;;;;;;;;;;4.90;99.90;;;;;;5134774;27;20386;-68
2022/03/30 06:44:25;;;;;;;;;;;4.60;99.90;;;;;;5116310;27;19930;-68
2022/03/30 06:46:51;;;;;;;;;;;4.60;99.90;;;;;;5134752;27;19930;-70
2022/03/30 06:49:17;;;;;;;;;;;5.60;99.90;;;;;;5134811;27;19931;-68
2022/03/30 06:51:42;;;;;;;;;;;4.60;99.90;;;;;;5116377;28;19923;-68
2022/03/30 06:54:08;;;;;;;;;;;6.40;99.90;;;;;;5134701;28;19969;-68
2022/03/30 06:56:33;;;;;;;;;;;4.70;99.90;;;;;;5134439;28;20267;-68
2022/03/30 06:58:59;;;;;;;;;;;4.70;99.90;;;;;;5134529;28;19924;-68
2022/03/30 07:01:24;;;;;;;;;;;4.90;99.90;;;;;;5134557;28;19931;-70
2022/03/30 07:03:50;;;;;;;;;;;5.80;99.90;;;;;;5134271;28;19930;-68
2022/03/30 07:06:16;;;;;;;;;;;4.70;99.90;;;;;;5134632;28;19927;-67
2022/03/30 07:11:26;;;;;;;;;;;5.50;99.90;;;;;;5134416;28;19971;-70
2022/03/30 07:13:52;;;;;;;;;;;6.00;99.90;;;;;;5134691;28;19974;-70
2022/03/30 07:16:18;;;;;;;;;;;5.90;99.90;;;;;;5134579;28;19924;-68
2022/03/30 07:18:44;;;;;;;;;;;5.30;99.90;;;;;;5134601;28;19976;-70
2022/03/30 07:21:10;;;;;;;;;;;5.00;99.90;;;;;;5134445;27;20281;-68
2022/03/30 07:23:35;;;;;;;;;;;5.90;99.90;;;;;;5134436;28;20335;-68
2022/03/30 07:26:01;;;;;;;;;;;4.90;99.90;;;;;;5116319;28;19923;-70
2022/03/30 07:28:27;;;;;;;;;;;5.00;99.90;;;;;;5134234;28;20302;-67
2022/03/30 07:30:53;;;;;;;;;;;5.00;99.90;;;;;;5134329;28;20309;-68
2022/03/30 07:33:19;;;;;;;;;;;6.30;99.90;;;;;;5134355;28;19976;-68
2022/03/30 07:35:47;;;;;;;;;;;6.20;99.90;;;;;;5134331;28;19923;-70
2022/03/30 07:38:14;;;;;;;;;;;5.10;99.90;;;;;;5134180;28;19968;-69
2022/03/30 07:40:40;;;;;;;;;;;5.10;99.90;;;;;;5134228;28;19924;-68
2022/03/30 07:43:05;;;;;;;;;;;5.50;99.90;;;;;;5116040;28;20389;-68
2022/03/30 07:45:31;;;;;;;;;;;5.30;99.90;;;;;;5134244;28;19928;-68
2022/03/30 07:47:57;;;;;;;;;;;6.30;99.90;;;;;;5134177;28;19930;-68
2022/03/30 07:50:23;;;;;;;;;;;6.60;99.90;;;;;;5135238;27;19924;-69
2022/03/30 07:52:49;;;;;;;;;;;5.20;99.90;;;;;;5119756;27;19924;-69
2022/03/30 07:55:14;;;;;;;;;;;6.10;99.90;;;;;;5137760;27;19923;-69
2022/03/30 07:57:42;;;;;;;;;;;6.10;99.90;;;;;;5137757;27;19979;-68
2022/03/30 08:00:09;;;;;;;;;;;5.40;99.90;;;;;;5137999;27;19927;-69
2022/03/30 08:02:35;;;;;;;;;;;5.20;99.90;;;;;;5137881;27;19930;-67
2022/03/30 08:05:00;;;;;;;;;;;5.20;99.90;;;;;;5137664;27;20285;-69
2022/03/30 08:07:26;;;;;;;;;;;5.70;99.90;;;;;;5118884;27;19927;-68
2022/03/30 08:09:52;;;;;;;;;;;5.60;99.90;;;;;;5137636;27;19923;-69
2022/03/30 08:12:20;;;;;;;;;;;5.80;99.90;;;;;;5119368;27;20336;-68
2022/03/30 08:14:46;;;;;;;;;;;5.30;99.90;;;;;;5137483;27;20039;-68
2022/03/30 08:17:11;;;;;;;;;;;5.40;99.90;;;;;;5137503;27;20391;-70
2022/03/30 08:19:37;;;;;;;;;;;6.00;99.90;;;;;;5119330;27;19946;-69
2022/03/30 08:24:47;;;;;;;;;;;5.50;99.90;;;;;;5137360;27;19930;-68
2022/03/30 08:27:17;;;;;;;;;;;5.60;99.90;;;;;;5137207;27;20009;-69
2022/03/30 08:29:44;;;;;;;;;;;6.00;99.90;;;;;;5119250;27;19980;-69
2022/03/30 08:32:11;;;;;;;;;;;5.60;99.90;;;;;;5137195;27;19924;-68
2022/03/30 08:34:36;;;;;;;;;;;6.30;99.90;;;;;;5137326;27;19927;-68
2022/03/30 08:37:02;;;;;;;;;;;5.60;99.90;;;;;;5137045;27;19931;-68
2022/03/30 08:39:27;;;;;;;;;;;5.70;99.90;;;;;;5137074;27;19930;-69
2022/03/30 08:41:53;;;;;;;;;;;5.70;99.90;;;;;;5136926;27;20298;-68
2022/03/30 08:44:19;;;;;;;;;;;6.00;99.90;;;;;;5137075;27;19996;-69
2022/03/30 08:46:45;;;;;;;;;;;5.90;99.90;;;;;;5118927;27;19923;-70
2022/03/30 08:49:11;;;;;;;;;;;7.30;99.90;;;;;;5136974;27;19923;-68
2022/03/30 08:51:38;;;;;;;;;;;7.90;99.90;;;;;;5136988;27;19951;-68
2022/03/30 08:54:03;;;;;;;;;;;6.00;99.90;;;;;;5136845;27;19968;-70
2022/03/30 08:56:30;;;;;;;;;;;6.10;99.90;;;;;;5136537;27;19927;-70
2022/03/30 08:59:07;;;;;;;;;;;4.50;99.90;;;;;;5137053;27;19987;-68
2022/03/30 09:01:37;;;;;;;;;;;6.30;99.90;;;;;;5136290;27;20362;-68
2022/03/30 09:04:04;;;;;;;;;;;6.30;99.90;;;;;;5136583;27;20006;-69
2022/03/30 09:06:34;;;;;;;;;;;6.10;99.90;;;;;;5118278;27;19929;-69
2022/03/30 09:08:59;;;;;;;;;;;6.00;99.90;;;;;;5136310;27;20028;-68
2022/03/30 09:11:26;;;;;;;;;;;7.10;99.90;;;;;;5136349;27;20286;-68
2022/03/30 09:14:04;;;;;;;;;;;6.50;99.90;;;;;;5118458;27;19967;-69
2022/03/30 09:16:40;;;;;;;;;;;5.90;99.90;;;;;;5136231;27;19923;-68
2022/03/30 09:19:08;;;;;;;;;;;5.90;99.90;;;;;;5136333;27;19982;-68
2022/03/30 09:21:59;;;;;;;;;;;5.90;99.90;;;;;;5136283;27;19976;-71
2022/03/30 09:24:26;;;;;;;;;;;5.90;99.90;;;;;;5131210;27;19966;-69
2022/03/30 09:26:52;;;;;;;;;;;6.50;99.90;;;;;;5136283;27;19923;-69
2022/03/30 09:29:20;;;;;;;;;;;6.00;99.90;;;;;;5136112;27;19923;-69
2022/03/30 09:31:47;;;;;;;;;;;6.10;99.90;;;;;;5135907;27;19924;-69
2022/03/30 09:34:12;;;;;;;;;;;6.20;99.90;;;;;;5135937;27;19923;-69
2022/03/30 09:36:39;;;;;;;;;;;7.10;99.90;;;;;;5135689;27;19967;-68
2022/03/30 09:39:05;;;;;;;;;;;7.00;99.90;;;;;;5135076;27;20004;-69
2022/03/30 09:41:48;;;;;;;;;;;6.20;99.90;;;;;;5135870;27;19923;-69
2022/03/30 09:44:14;;;;;;;;;;;6.30;99.90;;;;;;5135622;27;19956;-68
2022/03/30 09:46:55;;;;;;;;;;;6.20;99.90;;;;;;5117470;27;19971;-69
2022/03/30 09:49:35;;;;;;;;;;;6.20;99.90;;;;;;5135917;27;20294;-68
2022/03/30 09:52:01;;;;;;;;;;;6.10;99.90;;;;;;5135496;27;19924;-69
2022/03/30 09:54:57;;;;;;;;;;;6.30;99.90;;;;;;5135560;27;19927;-69
2022/03/30 09:57:22;;;;;;;;;;;6.00;99.90;;;;;;5031967;28;20075;-68
2022/03/30 09:59:55;;;;;;;;;;;5.90;99.90;;;;;;5032244;28;20015;-68
2022/03/30 10:02:22;;;;;;;;;;;5.70;99.90;;;;;;5031308;28;21325;-70
2022/03/30 10:04:49;;;;;;;;;;;7.40;99.90;;;;;;5040230;28;19963;-69
2022/03/30 10:07:15;;;;;;;;;;;5.60;99.90;;;;;;5051863;28;19932;-71
2022/03/30 10:09:42;;;;;;;;;;;5.60;99.90;;;;;;5051883;28;19932;-70
2022/03/30 10:12:07;;;;;;;;;;;6.10;99.90;;;;;;5051892;28;20379;-68
2022/03/30 10:14:36;;;;;;;;;;;5.50;99.90;;;;;;5051397;28;19963;-68
2022/03/30 10:17:01;;;;;;;;;;;5.60;99.90;;;;;;5051728;28;19924;-69
2022/03/30 10:19:28;;;;;;;;;;;5.70;99.90;;;;;;5051795;28;19963;-69
2022/03/30 10:22:26;;;;;;;;;;;6.20;99.90;;;;;;5035067;28;20013;-69
2022/03/30 10:24:58;;;;;;;;;;;5.90;99.90;;;;;;4972965;28;19933;-69
2022/03/30 10:27:32;;;;;;;;;;;5.90;99.90;;;;;;4941059;28;19992;-70
2022/03/30 10:30:05;;;;;;;;;;;6.10;99.90;;;;;;4957118;28;19926;-70
2022/03/30 10:32:33;;;;;;;;;;;6.20;99.90;;;;;;4972848;28;19926;-70
2022/03/30 10:35:06;;;;;;;;;;;6.30;99.90;;;;;;5049703;28;20392;-68
2022/03/30 10:37:34;;;;;;;;;;;6.40;99.90;;;;;;5051409;28;20015;-68
2022/03/30 10:40:09;;;;;;;;;;;6.50;99.90;;;;;;5051359;28;19925;-70
2022/03/30 10:42:46;;;;;;;;;;;6.60;99.90;;;;;;5051463;28;19976;-70
2022/03/30 10:45:33;;;;;;;;;;;6.60;99.90;;;;;;5051456;28;19972;-68
2022/03/30 10:48:18;;;;;;;;;;;6.60;99.90;;;;;;5034906;28;19936;-68
2022/03/30 10:50:55;;;;;;;;;;;6.70;99.90;;;;;;5051335;28;19925;-70
2022/03/30 10:53:30;;;;;;;;;;;6.70;99.90;;;;;;5051377;28;19932;-70
2022/03/30 10:56:15;;;;;;;;;;;6.70;99.90;;;;;;5051377;28;19924;-70
2022/03/30 10:58:52;;;;;;;;;;;6.70;99.90;;;;;;4972489;28;19933;-68
2022/03/30 11:01:22;;;;;;;;;;;6.80;99.90;;;;;;5034480;28;20000;-68
2022/03/30 11:04:06;;;;;;;;;;;6.80;99.90;;;;;;5051016;28;19979;-70
2022/03/30 11:06:35;;;;;;;;;;;6.70;99.90;;;;;;5050947;28;20312;-67
2022/03/30 11:09:23;;;;;;;;;;;6.70;99.90;;;;;;5050923;28;20012;-68
2022/03/30 11:11:55;;;;;;;;;;;6.70;99.90;;;;;;5051057;28;19932;-67
2022/03/30 11:14:21;;;;;;;;;;;6.70;99.90;;;;;;5051175;28;19925;-68
2022/03/30 11:16:48;;;;;;;;;;;6.60;99.90;;;;;;5050869;28;19929;-68
2022/03/30 11:19:13;;;;;;;;;;;6.60;99.90;;;;;;5051105;28;20351;-70
2022/03/30 11:21:39;;;;;;;;;;;7.80;99.90;;;;;;5034568;28;19929;-68
2022/03/30 11:24:08;;;;;;;;;;;6.70;99.90;;;;;;5051209;28;20387;-67
2022/03/30 11:26:46;;;;;;;;;;;6.70;99.90;;;;;;5054004;28;19925;-73
2022/03/30 11:29:32;;;;;;;;;;;6.80;99.90;;;;;;5054866;28;20021;-68
2022/03/30 11:31:57;;;;;;;;;;;7.20;99.90;;;;;;5047429;28;19932;-68
2022/03/30 11:34:36;;;;;;;;;;;6.90;99.90;;;;;;5054852;28;19929;-69
2022/03/30 11:37:01;;;;;;;;;;;6.90;99.90;;;;;;5116149;28;20481;-69
2022/03/30 11:39:37;;;;;;;;;;;6.90;99.90;;;;;;5117652;28;19927;-68
2022/03/30 11:42:03;;;;;;;;;;;8.40;99.90;;;;;;5117317;28;19971;-69
2022/03/30 11:47:16;;;;;;;;;;;6.90;99.90;;;;;;5117482;28;19931;-69
2022/03/30 11:50:08;;;;;;;;;;;7.80;99.90;;;;;;5116523;28;19923;-68
2022/03/30 11:52:33;;;;;;;;;;;6.90;99.90;;;;;;5114023;28;19930;-68
2022/03/30 11:54:59;;;;;;;;;;;6.90;99.90;;;;;;5117304;28;19923;-68
2022/03/30 11:57:25;;;;;;;;;;;7.50;99.90;;;;;;5117256;28;19931;-68
2022/03/30 11:59:54;;;;;;;;;;;7.50;99.90;;;;;;5117443;28;19969;-68
2022/03/30 12:02:21;;;;;;;;;;;7.10;99.90;;;;;;5117247;28;20392;-68
2022/03/30 12:04:47;;;;;;;;;;;7.70;99.90;;;;;;5125984;27;20010;-68
2022/03/30 12:07:16;;;;;;;;;;;7.80;99.90;;;;;;5119451;27;19985;-69
2022/03/30 12:09:48;;;;;;;;;;;7.40;99.90;;;;;;5137625;27;19923;-71
2022/03/30 12:12:35;;;;;;;;;;;7.50;99.90;;;;;;5137827;27;20289;-68
2022/03/30 12:15:01;;;;;;;;;;;7.40;99.90;;;;;;5137640;27;19924;-70
2022/03/30 12:17:27;;;;;;;;;;;7.40;99.90;;;;;;5137334;27;19927;-68
2022/03/30 12:19:53;;;;;;;;;;;7.30;99.90;;;;;;5137477;27;20285;-68
2022/03/30 12:22:18;;;;;;;;;;;7.20;99.90;;;;;;5137571;27;19923;-68
2022/03/30 12:24:44;;;;;;;;;;;7.30;99.90;;;;;;5137610;27;19992;-68
2022/03/30 12:27:10;;;;;;;;;;;7.40;99.90;;;;;;5137266;27;20298;-71
2022/03/30 12:29:37;;;;;;;;;;;6.40;99.90;;;;;;5137323;27;19969;-71
2022/03/30 12:32:03;;;;;;;;;;;6.80;99.90;;;;;;5118853;27;19976;-69
2022/03/30 12:34:31;;;;;;;;;;;6.70;99.90;;;;;;5137066;27;19923;-68
2022/03/30 12:37:05;;;;;;;;;;;6.70;99.90;;;;;;5136504;27;19933;-67
2022/03/30 12:39:35;;;;;;;;;;;6.60;99.90;;;;;;5137199;27;19974;-68
2022/03/30 12:42:02;;;;;;;;;;;6.50;99.90;;;;;;5137091;27;19923;-69
2022/03/30 12:44:28;;;;;;;;;;;6.50;99.90;;;;;;5118870;27;19931;-68
2022/03/30 12:46:55;;;;;;;;;;;6.50;99.90;;;;;;5136882;27;19931;-69
2022/03/30 12:49:31;;;;;;;;;;;6.50;99.90;;;;;;5136825;27;20259;-68
2022/03/30 12:52:03;;;;;;;;;;;6.40;99.90;;;;;;5136525;27;19933;-69
2022/03/30 12:54:29;;;;;;;;;;;6.90;99.90;;;;;;5136909;27;19923;-69
2022/03/30 12:56:54;;;;;;;;;;;6.60;99.90;;;;;;5136778;27;19946;-70
2022/03/30 12:59:20;;;;;;;;;;;5.10;99.90;;;;;;5118627;27;20013;-68
2022/03/30 13:01:49;;;;;;;;;;;6.70;99.90;;;;;;5136619;27;19968;-71
2022/03/30 13:04:19;;;;;;;;;;;7.10;99.90;;;;;;5136224;27;19968;-70
2022/03/30 13:07:03;;;;;;;;;;;6.90;99.90;;;;;;5137042;27;19929;-69
2022/03/30 13:09:29;;;;;;;;;;;6.90;99.90;;;;;;5136558;27;19968;-70
2022/03/30 13:11:57;;;;;;;;;;;7.00;99.90;;;;;;5136476;27;19927;-69
2022/03/30 13:14:23;;;;;;;;;;;7.20;99.90;;;;;;5136415;27;20347;-70
2022/03/30 13:16:55;;;;;;;;;;;7.20;99.90;;;;;;5136079;27;20330;-69
2022/03/30 13:19:24;;;;;;;;;;;7.40;99.90;;;;;;5136453;27;20290;-69
2022/03/30 13:21:50;;;;;;;;;;;7.50;99.90;;;;;;5117896;27;19924;-70
2022/03/30 13:24:30;;;;;;;;;;;8.40;99.90;;;;;;5136245;27;20078;-69
2022/03/30 13:26:57;;;;;;;;;;;7.60;99.90;;;;;;5136112;27;19923;-69
2022/03/30 13:29:23;;;;;;;;;;;8.20;99.90;;;;;;5117988;27;20259;-69
2022/03/30 13:31:49;;;;;;;;;;;7.80;99.90;;;;;;5135859;27;19923;-68
2022/03/30 13:34:16;;;;;;;;;;;7.90;99.90;;;;;;5136054;27;20026;-69
2022/03/30 13:36:42;;;;;;;;;;;7.90;99.90;;;;;;5135894;27;19923;-69
2022/03/30 13:39:08;;;;;;;;;;;8.20;99.90;;;;;;5117841;27;19924;-69
2022/03/30 13:41:34;;;;;;;;;;;7.90;99.90;;;;;;5117781;27;20428;-71
2022/03/30 13:44:00;;;;;;;;;;;7.90;99.90;;;;;;5135897;27;19923;-71
2022/03/30 13:46:26;;;;;;;;;;;7.80;99.90;;;;;;5135623;27;19923;-68
2022/03/30 13:48:52;;;;;;;;;;;7.80;99.90;;;;;;5116656;27;20101;-70
2022/03/30 13:51:18;;;;;;;;;;;8.20;99.90;;;;;;5135723;27;20022;-69
2022/03/30 13:53:43;;;;;;;;;;;7.60;99.90;;;;;;5135573;27;19963;-68
2022/03/30 13:56:10;;;;;;;;;;;7.50;99.90;;;;;;5135652;27;19923;-68
2022/03/30 13:58:36;;;;;;;;;;;7.40;99.90;;;;;;5135397;27;20370;-69
2022/03/30 14:01:03;;;;;;;;;;;7.80;99.90;;;;;;5135454;27;19930;-69
2022/03/30 14:03:30;;;;;;;;;;;7.20;99.90;;;;;;5135439;27;19930;-68
2022/03/30 14:05:56;;;;;;;;;;;7.20;99.90;;;;;;5135495;27;20017;-69
2022/03/30 14:08:22;;;;;;;;;;;7.20;99.90;;;;;;5135342;27;19932;-69
2022/03/30 14:10:48;;;;;;;;;;;7.10;99.90;;;;;;5117218;27;19923;-70
2022/03/30 14:13:14;;;;;;;;;;;7.10;99.90;;;;;;5135280;27;19923;-69
2022/03/30 14:15:39;;;;;;;;;;;7.10;99.90;;;;;;5117157;27;19923;-69
2022/03/30 14:18:05;;;;;;;;;;;7.10;99.90;;;;;;5116720;27;19996;-70
2022/03/30 14:20:31;;;;;;;;;;;7.10;99.90;;;;;;5135258;27;20316;-68
2022/03/30 14:22:56;;;;;;;;;;;7.20;99.90;;;;;;5117094;27;19927;-69
2022/03/30 14:25:22;;;;;;;;;;;7.30;99.90;;;;;;5135118;27;19927;-70
2022/03/30 14:27:48;;;;;;;;;;;7.70;99.90;;;;;;5134906;27;20018;-68
2022/03/30 14:30:14;;;;;;;;;;;7.40;99.90;;;;;;5135035;27;20018;-69
2022/03/30 14:32:40;;;;;;;;;;;7.20;99.90;;;;;;5134783;27;19923;-68
2022/03/30 14:35:07;;;;;;;;;;;7.90;99.90;;;;;;5135124;27;19927;-69
2022/03/30 14:37:33;;;;;;;;;;;7.50;99.90;;;;;;5134816;27;19998;-69
2022/03/30 14:39:59;;;;;;;;;;;8.30;99.90;;;;;;5134933;27;19975;-69
2022/03/30 14:42:25;;;;;;;;;;;9.00;99.90;;;;;;5134893;27;20281;-68